Time;durP1;ratioP1;P1;durP2;ratioP2;P2;SDS_P1;SDS_P2;PMS_P1;PMS_P2;Temp;Humidity;BMP_temperature;BMP_pressure;BME280_temperature;BME280_humidity;BME280_pressure;Samples;Min_cycle;Max_cycle;Signal;HPM_P1;HPM_P2
2021/06/12 00:00:17;;;;;;;12.27;7.60;;;;;;;24.36;50.10;101167.97;5077704;28;20484;-49
2021/06/12 00:02:44;;;;;;;12.47;6.87;;;;;;;24.07;50.70;101161.19;5076235;28;20484;-47
2021/06/12 00:05:12;;;;;;;11.23;6.90;;;;;;;24.00;50.92;101158.56;5077782;28;20462;-50
2021/06/12 00:07:40;;;;;;;10.77;7.13;;;;;;;23.97;51.43;101157.72;5075947;28;20482;-46
2021/06/12 00:10:09;;;;;;;13.70;6.80;;;;;;;23.97;51.54;101155.09;5077484;28;20927;-45
2021/06/12 00:12:38;;;;;;;14.10;8.83;;;;;;;24.03;51.21;101155.03;5076083;28;20588;-50
2021/06/12 00:15:07;;;;;;;14.47;8.00;;;;;;;23.98;51.18;101147.19;5077445;28;20509;-48
2021/06/12 00:17:34;;;;;;;15.00;8.40;;;;;;;23.76;51.87;101154.38;5075740;28;20484;-49
2021/06/12 00:20:01;;;;;;;14.50;8.60;;;;;;;24.01;51.44;101154.19;5077053;28;20955;-48
2021/06/12 00:22:28;;;;;;;14.50;8.80;;;;;;;23.73;51.95;101152.63;5075860;28;20780;-47
2021/06/12 00:24:55;;;;;;;12.33;8.10;;;;;;;23.87;51.66;101151.66;5075960;28;20914;-48
2021/06/12 00:27:22;;;;;;;13.93;8.73;;;;;;;23.63;52.49;101150.06;5075272;28;20914;-46
2021/06/12 00:29:51;;;;;;;17.33;8.20;;;;;;;24.16;50.82;101149.69;5076891;28;20478;-48
2021/06/12 00:32:19;;;;;;;13.30;7.97;;;;;;;24.21;50.62;101158.44;5075536;28;20475;-47
2021/06/12 00:34:46;;;;;;;14.90;7.70;;;;;;;24.43;50.50;101152.94;5076757;28;20460;-48
2021/06/12 00:37:13;;;;;;;13.77;7.90;;;;;;;24.09;51.26;101147.13;5075313;28;20465;-51
2021/06/12 00:39:40;;;;;;;13.50;8.73;;;;;;;24.39;50.51;101152.09;5076825;28;20484;-46
2021/06/12 00:42:08;;;;;;;16.43;8.83;;;;;;;24.12;51.21;101148.84;5075745;28;20467;-52
2021/06/12 00:44:35;;;;;;;14.53;8.10;;;;;;;24.40;50.47;101136.28;5076427;28;20481;-49
2021/06/12 00:47:03;;;;;;;9.83;7.00;;;;;;;24.22;50.85;101149.63;5075250;28;20468;-51
2021/06/12 00:49:31;;;;;;;14.47;8.90;;;;;;;24.54;50.09;101148.44;5076313;28;20485;-50
2021/06/12 00:51:58;;;;;;;14.97;7.80;;;;;;;24.61;49.89;101130.81;5075446;28;20518;-47
2021/06/12 00:54:25;;;;;;;16.97;9.73;;;;;;;24.25;51.21;101133.81;5075956;28;20936;-50
2021/06/12 00:56:53;;;;;;;14.23;9.40;;;;;;;23.91;52.21;101137.56;5076070;28;20530;-50
2021/06/12 00:59:21;;;;;;;16.97;10.70;;;;;;;23.96;52.06;101127.88;5074725;28;20490;-51
2021/06/12 01:01:48;;;;;;;19.07;10.30;;;;;;;23.91;52.15;101131.41;5076275;28;20500;-49
2021/06/12 01:04:17;;;;;;;19.50;10.50;;;;;;;23.86;52.36;101115.66;5068193;28;20497;-50
2021/06/12 01:06:49;;;;;;;23.20;11.47;;;;;;;23.87;52.35;101107.75;5076257;28;20470;-47
2021/06/12 01:09:16;;;;;;;23.37;12.87;;;;;;;24.26;51.69;101117.09;5074883;28;20481;-47
2021/06/12 01:11:56;;;;;;;22.33;12.87;;;;;;;23.65;53.31;101111.44;5076308;28;20460;-47
2021/06/12 01:14:25;;;;;;;25.23;13.10;;;;;;;23.84;52.94;101107.75;5075602;28;20583;-49
2021/06/12 01:16:56;;;;;;;25.07;14.30;;;;;;;23.83;52.78;101116.56;5075899;28;20456;-49
2021/06/12 01:19:36;;;;;;;22.73;14.10;;;;;;;24.16;52.42;101112.81;5060704;28;20473;-47
2021/06/12 01:22:07;;;;;;;25.23;14.70;;;;;;;23.99;52.69;101112.03;5054888;28;20458;-48
2021/06/12 01:24:48;;;;;;;28.17;14.80;;;;;;;23.89;52.86;101109.50;5055691;28;20934;-49
2021/06/12 01:27:58;;;;;;;25.47;14.30;;;;;;;23.93;52.80;101117.34;5054579;28;20468;-48
2021/06/12 01:30:27;;;;;;;25.33;14.77;;;;;;;23.73;52.86;101120.13;4994697;28;20478;-47
2021/06/12 01:32:56;;;;;;;24.10;13.90;;;;;;;23.87;52.99;101117.41;5047329;28;20486;-48
2021/06/12 01:35:27;;;;;;;21.37;14.50;;;;;;;23.74;53.65;101114.00;5055761;28;20467;-47
2021/06/12 01:37:55;;;;;;;24.00;14.40;;;;;;;23.87;52.77;101107.75;5054397;28;20485;-50
2021/06/12 01:40:25;;;;;;;21.87;13.77;;;;;;;23.76;53.33;101104.31;5055797;28;20486;-48
2021/06/12 01:42:53;;;;;;;22.90;13.60;;;;;;;23.92;52.74;101105.06;5054322;28;20491;-50
2021/06/12 01:45:21;;;;;;;26.23;13.57;;;;;;;23.72;52.88;101103.47;5055398;28;20463;-50
2021/06/12 01:47:51;;;;;;;20.40;13.13;;;;;;;23.75;53.13;101092.06;5054505;28;20525;-50
2021/06/12 01:50:19;;;;;;;23.30;12.87;;;;;;;23.72;53.11;101092.06;5055359;28;20565;-47
2021/06/12 01:52:47;;;;;;;28.10;11.67;;;;;;;23.71;53.53;101095.59;5054106;28;20790;-46
2021/06/12 01:55:16;;;;;;;21.63;12.67;;;;;;;23.93;52.67;101095.44;5055578;28;20764;-48
2021/06/12 01:57:44;;;;;;;18.30;11.70;;;;;;;24.09;51.79;101089.13;5071382;28;20764;-49
2021/06/12 02:00:12;;;;;;;21.00;11.97;;;;;;;24.11;51.77;101083.88;5075599;28;20482;-47
2021/06/12 02:02:41;;;;;;;23.40;12.50;;;;;;;24.14;51.70;101083.81;5074049;28;20492;-48
2021/06/12 02:05:13;;;;;;;18.87;12.30;;;;;;;24.26;51.40;101077.56;5075392;28;21042;-49
2021/06/12 02:07:40;;;;;;;28.43;12.30;;;;;;;24.21;51.25;101079.38;5073938;28;20480;-51
2021/06/12 02:10:12;;;;;;;17.37;11.07;;;;;;;24.00;52.16;101079.53;5075430;28;20482;-47
2021/06/12 02:12:40;;;;;;;17.67;10.70;;;;;;;24.04;52.41;101077.72;5074208;28;20487;-46
2021/06/12 02:15:09;;;;;;;16.67;9.13;;;;;;;24.61;50.65;101063.09;5075449;28;20789;-48
2021/06/12 02:17:37;;;;;;;18.23;11.17;;;;;;;24.52;50.78;101069.34;5073921;28;20481;-50
2021/06/12 02:20:10;;;;;;;18.87;10.47;;;;;;;24.41;51.13;101071.25;5075308;28;20480;-49
2021/06/12 02:22:38;;;;;;;14.13;9.83;;;;;;;23.92;52.19;101078.72;5073736;28;20480;-49
2021/06/12 02:25:07;;;;;;;18.20;11.60;;;;;;;24.17;51.63;101068.00;5075384;28;20761;-50
2021/06/12 02:27:36;;;;;;;22.47;12.27;;;;;;;24.21;51.41;101074.09;5073833;28;20488;-48
2021/06/12 02:30:04;;;;;;;17.33;9.97;;;;;;;24.21;51.42;101074.09;5075149;28;20486;-48
2021/06/12 02:32:33;;;;;;;17.43;10.80;;;;;;;24.30;51.49;101083.69;5073850;28;20474;-51
2021/06/12 02:35:00;;;;;;;16.47;10.63;;;;;;;23.83;53.04;101090.22;5074848;28;20503;-47
2021/06/12 02:37:29;;;;;;;18.50;11.43;;;;;;;23.93;53.42;101087.53;5073236;28;20486;-48
2021/06/12 02:39:56;;;;;;;19.87;12.70;;;;;;;23.81;54.40;101081.47;5075207;28;20562;-52
2021/06/12 02:42:23;;;;;;;24.90;11.87;;;;;;;23.95;54.00;101073.41;5074047;28;20792;-48
2021/06/12 02:44:50;;;;;;;21.53;11.87;;;;;;;24.25;53.41;101075.81;5075115;28;20516;-49
2021/06/12 02:47:18;;;;;;;20.20;12.87;;;;;;;24.33;53.06;101073.97;5073550;28;20478;-52
2021/06/12 02:49:45;;;;;;;21.40;12.80;;;;;;;24.47;53.07;101067.66;5078122;28;20481;-50
2021/06/12 02:52:17;;;;;;;19.60;13.20;;;;;;;24.46;52.88;101066.78;5077534;28;20456;-51
2021/06/12 02:54:46;;;;;;;22.40;14.70;;;;;;;24.04;53.58;101061.91;5078944;28;20479;-50
2021/06/12 02:57:14;;;;;;;25.83;14.87;;;;;;;23.96;54.02;101058.50;5077850;28;20456;-50
2021/06/12 02:59:44;;;;;;;23.00;14.30;;;;;;;23.73;54.72;101057.81;5078792;28;20762;-49
2021/06/12 03:02:13;;;;;;;28.83;15.30;;;;;;;23.72;55.17;101068.34;5078060;28;20530;-50
2021/06/12 03:04:41;;;;;;;24.33;16.00;;;;;;;23.89;54.51;101057.66;5078741;28;20468;-49
2021/06/12 03:07:09;;;;;;;27.47;16.67;;;;;;;24.05;54.10;101053.13;5077140;28;20909;-45
2021/06/12 03:09:37;;;;;;;29.43;16.43;;;;;;;23.84;54.53;101055.09;5078048;28;20478;-49
2021/06/12 03:12:07;;;;;;;32.90;16.47;;;;;;;23.83;54.97;101048.06;5077649;28;20458;-50
2021/06/12 03:14:35;;;;;;;29.30;18.07;;;;;;;24.05;54.34;101047.84;5078160;28;20987;-49
2021/06/12 03:17:03;;;;;;;35.70;18.73;;;;;;;24.12;53.89;101041.69;5077074;28;20752;-45
2021/06/12 03:19:31;;;;;;;30.83;18.13;;;;;;;24.01;54.59;101038.25;5078049;28;20484;-48
2021/06/12 03:21:58;;;;;;;59.23;34.70;;;;;;;24.05;54.19;101036.47;5077134;28;20892;-50
2021/06/12 03:24:27;;;;;;;30.43;18.20;;;;;;;23.54;56.17;101030.75;5078057;28;20487;-50
2021/06/12 03:26:58;;;;;;;29.90;17.30;;;;;;;23.86;54.85;101031.38;5077927;28;20463;-48
2021/06/12 03:29:27;;;;;;;37.60;19.50;;;;;;;23.43;55.98;101022.09;5076885;28;20460;-49
2021/06/12 03:31:55;;;;;;;36.43;19.17;;;;;;;23.37;56.54;101020.34;5078277;28;20464;-50
2021/06/12 03:34:23;;;;;;;34.97;18.10;;;;;;;23.08;57.12;101031.06;5077607;28;20521;-47
2021/06/12 03:36:51;;;;;;;37.00;19.47;;;;;;;23.55;55.59;101035.16;5077538;28;20471;-45
2021/06/12 03:39:18;;;;;;;40.30;22.33;;;;;;;24.13;54.58;101026.72;5076626;28;20478;-49
2021/06/12 03:41:46;;;;;;;39.13;20.20;;;;;;;23.81;54.90;101034.06;5078033;28;20497;-50
2021/06/12 03:44:13;;;;;;;34.20;18.17;;;;;;;23.96;54.80;101030.41;5077012;28;20471;-48
2021/06/12 03:46:43;;;;;;;32.23;18.30;;;;;;;23.85;54.41;101034.91;5077674;28;20459;-48
2021/06/12 03:49:10;;;;;;;27.87;15.50;;;;;;;23.81;54.32;101048.97;5076411;28;20936;-47
2021/06/12 03:51:38;;;;;;;29.27;16.00;;;;;;;24.11;53.12;101041.69;5077830;28;20461;-49
2021/06/12 03:54:07;;;;;;;26.30;15.17;;;;;;;23.74;54.39;101048.16;5076151;28;20476;-50
2021/06/12 03:56:35;;;;;;;26.33;14.97;;;;;;;24.01;53.37;101046.16;5077371;28;20472;-49
2021/06/12 03:59:03;;;;;;;23.90;14.90;;;;;;;23.99;53.41;101054.06;5076309;28;20481;-50
2021/06/12 04:01:30;;;;;;;25.10;14.77;;;;;;;24.12;53.09;101046.06;5077725;28;20458;-51
2021/06/12 04:03:59;;;;;;;26.00;15.50;;;;;;;24.06;53.33;101036.44;5076442;28;20471;-47
2021/06/12 04:06:26;;;;;;;22.60;14.00;;;;;;;24.07;53.42;101032.97;5076918;28;20452;-49
2021/06/12 04:08:53;;;;;;;22.50;14.13;;;;;;;24.11;53.12;101037.28;5076324;28;20483;-48
2021/06/12 04:11:20;;;;;;;23.90;14.30;;;;;;;23.96;53.38;101040.06;5077636;28;20459;-51
2021/06/12 04:13:47;;;;;;;23.53;14.70;;;;;;;23.98;53.35;101040.91;5076709;28;20483;-50
2021/06/12 04:16:14;;;;;;;21.10;12.93;;;;;;;24.18;52.77;101039.84;5077070;28;20454;-46
2021/06/12 04:18:42;;;;;;;24.53;12.70;;;;;;;24.20;52.50;101046.00;5075832;28;20487;-47
2021/06/12 04:21:10;;;;;;;22.10;13.10;;;;;;;23.92;53.48;101035.69;5077272;28;20547;-49
2021/06/12 04:23:37;;;;;;;20.63;12.40;;;;;;;24.27;52.81;101043.25;5075933;28;20481;-50
2021/06/12 04:26:04;;;;;;;21.83;12.90;;;;;;;23.86;53.79;101034.00;5077113;28;20462;-50
2021/06/12 04:28:31;;;;;;;21.27;12.60;;;;;;;23.94;53.80;101031.31;5075997;28;20479;-51
2021/06/12 04:30:58;;;;;;;21.30;12.83;;;;;;;23.84;52.84;101028.75;5077052;28;20467;-51
2021/06/12 04:33:25;;;;;;;21.30;12.97;;;;;;;24.08;52.52;101032.06;5075774;28;20480;-49
2021/06/12 04:35:52;;;;;;;20.67;12.67;;;;;;;24.13;52.81;101035.53;5076455;28;20486;-49
2021/06/12 04:38:21;;;;;;;21.80;12.03;;;;;;;23.97;52.94;101031.25;5075556;28;20495;-51
2021/06/12 04:40:48;;;;;;;20.33;12.80;;;;;;;24.24;52.33;101039.78;5076997;28;20464;-48
2021/06/12 04:43:16;;;;;;;23.93;11.80;;;;;;;23.84;53.72;101039.28;5075765;28;20570;-49
2021/06/12 04:45:43;;;;;;;21.50;12.30;;;;;;;23.73;53.17;101033.22;5076476;28;20455;-47
2021/06/12 04:48:10;;;;;;;18.43;11.93;;;;;;;24.13;52.96;101026.72;5075297;28;20486;-49
2021/06/12 04:50:39;;;;;;;19.47;11.70;;;;;;;23.69;53.11;101034.16;5076618;28;20928;-52
2021/06/12 04:53:07;;;;;;;21.53;12.97;;;;;;;23.89;52.99;101041.00;5075137;28;20791;-46
2021/06/12 04:55:36;;;;;;;21.10;12.23;;;;;;;23.82;53.10;101042.81;5075960;28;20477;-46
2021/06/12 04:58:04;;;;;;;17.10;11.37;;;;;;;23.89;53.10;101031.31;5075579;28;20474;-48
2021/06/12 05:00:31;;;;;;;20.30;11.70;;;;;;;24.18;52.45;101026.69;5076534;28;20482;-47
2021/06/12 05:02:58;;;;;;;24.07;12.90;;;;;;;23.89;53.07;101039.22;5074916;28;20492;-51
2021/06/12 05:05:26;;;;;;;23.30;12.23;;;;;;;23.81;53.06;101048.97;5076024;28;20470;-51
2021/06/12 05:07:53;;;;;;;23.00;13.60;;;;;;;23.77;53.22;101047.25;5074887;28;20476;-48
2021/06/12 05:10:23;;;;;;;21.83;12.20;;;;;;;24.08;52.39;101041.72;5076231;28;20477;-46
2021/06/12 05:12:52;;;;;;;22.77;13.40;;;;;;;24.00;52.30;101045.28;5074407;28;20549;-50
2021/06/12 05:15:24;;;;;;;19.10;12.43;;;;;;;24.26;52.45;101045.94;5075968;28;20488;-50
2021/06/12 05:17:51;;;;;;;21.53;12.70;;;;;;;23.58;53.94;101048.28;5074824;28;21057;-48
2021/06/12 05:20:19;;;;;;;23.20;13.53;;;;;;;23.69;53.29;101047.31;5076041;28;20482;-49
2021/06/12 05:22:46;;;;;;;21.53;13.23;;;;;;;23.86;52.91;101039.28;5074849;28;20793;-48
2021/06/12 05:25:14;;;;;;;26.30;14.37;;;;;;;23.99;52.15;101034.75;5075929;28;21102;-49
2021/06/12 05:27:41;;;;;;;24.87;14.10;;;;;;;23.97;52.35;101024.25;5074648;28;20567;-48
2021/06/12 05:30:11;;;;;;;23.53;14.00;;;;;;;23.96;52.77;101026.88;5075650;28;20944;-48
2021/06/12 05:32:38;;;;;;;21.97;13.30;;;;;;;24.14;52.16;101029.34;5074764;28;20474;-51
2021/06/12 05:35:07;;;;;;;24.37;14.00;;;;;;;23.59;53.57;101038.63;5075658;28;20488;-48
2021/06/12 05:37:34;;;;;;;24.10;14.27;;;;;;;23.48;53.61;101041.31;5074348;28;20784;-47
2021/06/12 05:40:01;;;;;;;24.53;14.47;;;;;;;23.77;53.26;101028.81;5075796;28;20580;-46
2021/06/12 05:42:28;;;;;;;27.77;15.80;;;;;;;24.12;52.32;101022.34;5074629;28;20474;-49
2021/06/12 05:44:55;;;;;;;28.20;14.07;;;;;;;24.03;52.97;101027.72;5075346;28;20452;-48
2021/06/12 05:47:24;;;;;;;28.90;15.47;;;;;;;24.04;52.71;101025.03;5074091;28;20556;-47
2021/06/12 05:49:51;;;;;;;28.37;15.60;;;;;;;24.54;51.83;101019.25;5075649;28;20477;-49
2021/06/12 05:52:18;;;;;;;29.03;16.27;;;;;;;24.21;52.20;101024.91;5074282;28;20465;-49
2021/06/12 05:54:45;;;;;;;32.43;17.47;;;;;;;24.32;52.21;101032.69;5075370;28;20507;-47
2021/06/12 05:57:12;;;;;;;29.50;17.33;;;;;;;24.12;52.86;101036.41;5074235;28;20455;-52
2021/06/12 05:59:39;;;;;;;31.43;16.83;;;;;;;24.26;52.50;101032.75;5075460;28;20480;-47
2021/06/12 06:02:07;;;;;;;30.93;17.33;;;;;;;24.54;52.01;101025.41;5074242;28;20542;-48
2021/06/12 06:04:35;;;;;;;28.63;15.83;;;;;;;24.43;51.91;101023.75;5075209;28;20493;-47
2021/06/12 06:07:03;;;;;;;35.07;17.63;;;;;;;24.29;52.42;101029.22;5073677;28;20465;-48
2021/06/12 06:09:30;;;;;;;30.53;17.37;;;;;;;24.69;51.36;101028.72;5074982;28;20492;-48
2021/06/12 06:11:57;;;;;;;37.90;18.67;;;;;;;24.45;52.30;101025.50;5073793;28;20757;-51
2021/06/12 06:14:24;;;;;;;28.10;17.13;;;;;;;24.75;51.50;101027.75;5074903;28;20487;-49
2021/06/12 06:16:51;;;;;;;31.70;17.37;;;;;;;24.52;52.32;101018.41;5074950;28;20463;-47
2021/06/12 06:19:18;;;;;;;28.20;17.20;;;;;;;24.28;52.70;101017.78;5073682;28;20485;-48
2021/06/12 06:21:47;;;;;;;29.87;17.37;;;;;;;24.32;52.57;100998.41;5075218;28;20461;-48
2021/06/12 06:24:14;;;;;;;34.57;18.90;;;;;;;24.81;51.58;101002.22;5076106;28;20489;-49
2021/06/12 06:26:41;;;;;;;27.93;16.27;;;;;;;24.29;52.50;100985.25;5079383;28;20449;-47
2021/06/12 06:29:08;;;;;;;29.87;19.07;;;;;;;24.54;51.85;100992.88;5078235;28;20791;-54
2021/06/12 06:31:36;;;;;;;34.37;18.37;;;;;;;24.57;51.45;100998.13;5079110;28;20462;-47
2021/06/12 06:34:03;;;;;;;28.73;17.40;;;;;;;24.75;51.27;100993.47;5077884;28;20830;-46
2021/06/12 06:36:30;;;;;;;38.53;17.57;;;;;;;24.89;51.09;100990.69;5078623;28;20782;-47
2021/06/12 06:38:59;;;;;;;32.87;19.17;;;;;;;24.54;51.62;100988.47;5077468;28;20489;-50
2021/06/12 06:41:26;;;;;;;33.23;18.93;;;;;;;24.51;51.74;100992.91;5079107;28;20549;-49
2021/06/12 06:43:53;;;;;;;29.73;18.10;;;;;;;24.76;50.91;100987.31;5078053;28;20485;-48
2021/06/12 06:46:20;;;;;;;28.07;16.67;;;;;;;24.53;51.96;100985.84;5078656;28;20458;-48
2021/06/12 06:48:47;;;;;;;29.50;16.77;;;;;;;24.47;51.91;100997.38;5077331;28;20947;-47
2021/06/12 06:51:14;;;;;;;32.37;17.07;;;;;;;24.78;50.88;100990.81;5078578;28;20532;-48
2021/06/12 06:53:41;;;;;;;29.40;17.30;;;;;;;24.67;51.42;100989.16;5077467;28;20796;-48
2021/06/12 06:56:10;;;;;;;29.17;16.80;;;;;;;24.61;51.33;100994.53;5078519;28;20481;-49
2021/06/12 06:58:38;;;;;;;31.50;16.73;;;;;;;24.24;52.70;100993.22;5077606;28;20478;-47
2021/06/12 07:01:07;;;;;;;26.00;15.83;;;;;;;24.52;51.88;100992.88;5078364;28;20460;-49
2021/06/12 07:03:34;;;;;;;26.70;16.27;;;;;;;24.62;50.98;100985.72;5077198;28;20492;-48
2021/06/12 07:06:01;;;;;;;28.33;17.30;;;;;;;24.41;52.20;100985.13;5078054;28;20457;-48
2021/06/12 07:08:29;;;;;;;26.23;15.60;;;;;;;25.12;50.67;100984.19;5077275;28;20484;-48
2021/06/12 07:10:56;;;;;;;28.67;16.57;;;;;;;25.08;50.54;100984.22;5078401;28;20467;-49
2021/06/12 07:13:25;;;;;;;28.80;16.50;;;;;;;24.74;50.78;100983.81;5077508;28;20501;-46
2021/06/12 07:15:52;;;;;;;19.33;13.37;;;;;;;24.87;50.29;100984.56;5077703;28;20492;-50
2021/06/12 07:18:19;;;;;;;20.50;12.30;;;;;;;24.79;49.68;100987.25;5076857;28;20483;-49
2021/06/12 07:20:47;;;;;;;21.57;12.93;;;;;;;24.52;51.36;100992.03;5078429;28;20468;-52
2021/06/12 07:23:16;;;;;;;19.10;11.90;;;;;;;24.64;50.40;100999.78;5076876;28;20479;-48
2021/06/12 07:25:44;;;;;;;24.57;11.83;;;;;;;24.81;49.45;100982.84;5078036;28;20459;-51
2021/06/12 07:28:11;;;;;;;20.97;11.50;;;;;;;24.62;49.43;100991.00;5077218;28;20487;-51
2021/06/12 07:30:40;;;;;;;15.20;9.53;;;;;;;24.81;49.24;100988.13;5078160;28;20456;-45
2021/06/12 07:33:08;;;;;;;19.37;11.40;;;;;;;24.58;49.86;100985.78;5076773;28;20477;-49
2021/06/12 07:35:35;;;;;;;22.43;11.40;;;;;;;24.54;50.01;100991.13;5077465;28;20485;-47
2021/06/12 07:38:02;;;;;;;18.70;12.10;;;;;;;24.34;50.97;101001.00;5076825;28;20487;-44
2021/06/12 07:40:30;;;;;;;19.93;11.17;;;;;;;24.31;50.61;100996.69;5078071;28;20489;-46
2021/06/12 07:42:57;;;;;;;13.30;9.13;;;;;;;24.61;50.69;100988.41;5077087;28;20492;-49
2021/06/12 07:45:24;;;;;;;19.07;11.50;;;;;;;24.56;49.75;100984.94;5077484;28;20460;-53
2021/06/12 07:47:53;;;;;;;24.93;10.83;;;;;;;24.50;50.75;100983.28;5076693;28;20485;-50
2021/06/12 07:50:20;;;;;;;20.00;11.00;;;;;;;24.46;50.38;100987.69;5078090;28;20484;-49
2021/06/12 07:52:47;;;;;;;14.97;9.97;;;;;;;24.36;50.96;100984.28;5076654;28;20493;-52
2021/06/12 07:55:15;;;;;;;21.97;12.07;;;;;;;24.31;50.46;100991.41;5077603;28;20486;-50
2021/06/12 07:57:42;;;;;;;22.83;11.37;;;;;;;23.79;52.22;100990.16;5076605;28;20483;-52
2021/06/12 08:00:10;;;;;;;21.57;11.80;;;;;;;23.93;52.07;101003.22;5077551;28;20786;-52
2021/06/12 08:02:37;;;;;;;21.57;12.67;;;;;;;24.08;51.90;101003.06;5076505;28;20481;-51
2021/06/12 08:05:07;;;;;;;18.13;11.73;;;;;;;23.84;52.58;101004.19;5077209;28;20460;-48
2021/06/12 08:07:35;;;;;;;18.90;11.30;;;;;;;24.03;52.08;101006.63;5075926;28;21211;-45
2021/06/12 08:10:03;;;;;;;24.23;12.53;;;;;;;24.21;51.81;100995.03;5077548;28;20479;-47
2021/06/12 08:12:30;;;;;;;22.20;13.83;;;;;;;24.07;52.09;101019.78;5076655;28;20470;-47
2021/06/12 08:14:57;;;;;;;21.50;12.40;;;;;;;24.27;51.43;101011.63;5077205;28;20459;-48
2021/06/12 08:17:24;;;;;;;21.70;12.97;;;;;;;23.86;52.10;101011.19;5075948;28;20485;-48
2021/06/12 08:19:52;;;;;;;19.43;13.10;;;;;;;24.44;50.30;101013.22;5077301;28;20487;-47
2021/06/12 08:22:20;;;;;;;20.63;12.43;;;;;;;24.73;50.00;101006.69;5076105;28;20470;-49
2021/06/12 08:24:48;;;;;;;21.07;13.40;;;;;;;24.58;49.24;101010.41;5077228;28;20741;-48
2021/06/12 08:27:15;;;;;;;21.60;14.83;;;;;;;24.60;50.14;101000.69;5075962;28;20477;-47
2021/06/12 08:29:43;;;;;;;21.80;12.80;;;;;;;24.64;50.06;101014.72;5077071;28;20482;-50
2021/06/12 08:32:11;;;;;;;24.60;14.40;;;;;;;24.32;50.36;101014.25;5076110;28;20462;-51
2021/06/12 08:34:38;;;;;;;21.30;13.43;;;;;;;24.84;49.18;101006.56;5076886;28;20456;-48
2021/06/12 08:37:06;;;;;;;20.83;10.43;;;;;;;24.12;50.30;101010.06;5075248;28;20487;-50
2021/06/12 08:39:34;;;;;;;20.33;11.20;;;;;;;24.79;47.24;101014.53;5076694;28;20489;-47
2021/06/12 08:42:02;;;;;;;18.67;10.53;;;;;;;24.34;49.09;101030.91;5076459;28;20464;-47
2021/06/12 08:44:29;;;;;;;17.17;9.17;;;;;;;24.62;47.90;101016.50;5076768;28;20487;-49
2021/06/12 08:46:56;;;;;;;18.37;10.00;;;;;;;24.65;46.65;101017.34;5074385;28;20480;-50
2021/06/12 08:49:23;;;;;;;14.27;8.40;;;;;;;24.66;47.40;101024.34;5076486;28;20480;-47
2021/06/12 08:51:52;;;;;;;14.47;8.73;;;;;;;24.34;47.71;101028.25;5076736;28;20486;-49
2021/06/12 08:54:20;;;;;;;13.90;7.70;;;;;;;24.62;46.22;101022.63;5074732;28;20490;-49
2021/06/12 08:56:49;;;;;;;10.67;6.77;;;;;;;24.43;46.20;101021.13;5076195;28;20489;-52
2021/06/12 08:59:17;;;;;;;13.27;6.27;;;;;;;24.48;45.06;101033.38;5075350;28;20939;-52
2021/06/12 09:01:45;;;;;;;11.70;5.57;;;;;;;24.41;45.78;101027.28;5076545;28;20455;-48
2021/06/12 09:04:25;;;;;;;11.30;5.53;;;;;;;24.47;44.31;101033.41;5074990;28;20955;-49
2021/06/12 09:07:17;;;;;;;9.70;4.30;;;;;;;24.54;42.99;101032.41;5075942;28;20464;-48
2021/06/12 09:09:44;;;;;;;11.80;3.90;;;;;;;24.71;41.24;101020.78;5076109;28;20522;-46
2021/06/12 09:12:13;;;;;;;8.97;3.53;;;;;;;24.54;41.73;101042.97;5077628;28;20459;-50
2021/06/12 09:14:40;;;;;;;8.93;3.70;;;;;;;23.98;43.85;101041.78;5095997;28;20453;-46
2021/06/12 09:17:07;;;;;;;11.17;3.93;;;;;;;24.50;42.55;101036.88;5098913;28;20503;-50
2021/06/12 09:19:39;;;;;;;8.37;4.10;;;;;;;25.00;39.61;101030.09;5096218;28;20889;-54
2021/06/12 09:22:09;;;;;;;12.67;3.63;;;;;;;25.61;39.02;101040.63;5100573;28;20914;-51
2021/06/12 09:24:39;;;;;;;8.97;3.30;;;;;;;25.24;40.63;101041.19;5111990;28;20459;-46
2021/06/12 09:27:12;;;;;;;11.70;3.80;;;;;;;24.66;40.58;101045.47;5106402;28;20894;-51
2021/06/12 09:29:42;;;;;;;7.03;3.03;;;;;;;24.73;40.70;101046.25;5115943;28;20467;-46
2021/06/12 09:32:12;;;;;;;9.10;3.57;;;;;;;24.79;40.66;101045.31;5115558;28;20486;-47
2021/06/12 09:34:39;;;;;;;8.90;3.13;;;;;;;25.14;39.03;101028.16;5115944;28;20458;-47
2021/06/12 09:37:11;;;;;;;7.87;3.50;;;;;;;25.20;39.83;101028.06;5114698;28;20488;-47
2021/06/12 09:39:43;;;;;;;9.33;3.67;;;;;;;24.47;39.46;101017.56;5116489;28;20475;-50
2021/06/12 09:42:10;;;;;;;8.80;3.57;;;;;;;24.61;39.85;101023.53;5115506;28;20500;-47
2021/06/12 09:44:39;;;;;;;6.50;3.10;;;;;;;24.71;39.79;101021.66;5116424;28;20458;-49
2021/06/12 09:47:22;;;;;;;9.60;3.03;;;;;;;24.79;39.23;101024.19;5114916;28;20459;-46
2021/06/12 09:49:50;;;;;;;10.50;3.10;;;;;;;25.03;38.98;101033.56;5116177;28;20477;-48
2021/06/12 09:52:18;;;;;;;9.43;2.90;;;;;;;24.62;39.45;101033.19;5114739;28;20474;-45
2021/06/12 09:54:47;;;;;;;9.33;3.27;;;;;;;24.59;40.32;101037.63;5116150;28;20546;-52
2021/06/12 09:57:16;;;;;;;7.73;2.90;;;;;;;24.48;40.32;101040.41;5114318;28;20490;-47
2021/06/12 09:59:45;;;;;;;7.63;3.07;;;;;;;24.57;40.25;101042.94;5116126;28;20929;-47
2021/06/12 10:02:35;;;;;;;7.50;3.03;;;;;;;24.81;39.16;101054.09;5103012;28;20454;-47
2021/06/12 10:05:05;;;;;;;13.20;3.13;;;;;;;24.50;40.45;101060.59;5095681;28;20465;-47
2021/06/12 10:07:32;;;;;;;7.83;3.10;;;;;;;24.10;41.75;101067.16;5093975;28;20475;-50
2021/06/12 10:10:01;;;;;;;8.37;2.90;;;;;;;23.98;41.62;101077.78;5095749;28;20474;-49
2021/06/12 10:12:29;;;;;;;9.73;3.00;;;;;;;24.77;39.31;101073.47;5094817;28;20468;-46
2021/06/12 10:14:57;;;;;;;15.47;6.60;;;;;;;24.83;39.25;101073.44;5095599;28;20455;-50
2021/06/12 10:17:27;;;;;;;10.50;3.07;;;;;;;24.41;39.17;101079.16;5093826;28;20790;-49
2021/06/12 10:19:56;;;;;;;7.80;2.63;;;;;;;24.85;38.91;101076.91;5095441;28;20484;-46
2021/06/12 10:22:23;;;;;;;22.50;8.73;;;;;;;24.25;39.89;101104.81;5094368;28;20483;-50
2021/06/12 10:24:51;;;;;;;8.10;2.27;;;;;;;23.81;39.54;101093.75;5095561;28;20460;-48
2021/06/12 10:27:18;;;;;;;8.23;2.10;;;;;;;24.78;37.83;101085.78;5094245;28;20464;-50
2021/06/12 10:29:46;;;;;;;9.57;2.27;;;;;;;24.79;36.60;101077.84;5095348;28;20479;-48
2021/06/12 10:32:14;;;;;;;11.73;1.77;;;;;;;24.61;36.41;101102.66;5094007;28;20465;-51
2021/06/12 10:34:43;;;;;;;10.80;4.93;;;;;;;24.28;39.95;101078.41;5095687;28;20455;-47
2021/06/12 10:37:11;;;;;;;8.10;2.57;;;;;;;23.97;38.80;101091.84;5093690;28;20480;-48
2021/06/12 10:39:40;;;;;;;8.90;2.47;;;;;;;24.67;37.56;101083.28;5095089;28;20476;-47
2021/06/12 10:42:12;;;;;;;9.07;2.90;;;;;;;24.76;38.32;101098.97;5094515;28;20567;-49
2021/06/12 10:44:40;;;;;;;7.37;3.23;;;;;;;25.40;37.83;101084.97;5094695;28;20458;-45
2021/06/12 10:47:08;;;;;;;6.20;1.90;;;;;;;25.17;35.92;101090.59;5091349;28;20489;-48
2021/06/12 10:49:35;;;;;;;7.40;2.07;;;;;;;24.47;36.69;101070.31;5095163;28;20801;-49
2021/06/12 10:52:07;;;;;;;12.83;2.27;;;;;;;24.70;36.85;101095.56;5093818;28;20492;-51
2021/06/12 10:54:36;;;;;;;5.37;1.73;;;;;;;24.72;37.08;101089.38;5095092;28;20496;-48
2021/06/12 10:57:15;;;;;;;6.87;1.80;;;;;;;24.38;37.78;101089.72;5093983;28;20491;-49
2021/06/12 10:59:45;;;;;;;13.07;2.33;;;;;;;24.71;37.63;101086.75;5095292;28;20533;-51
2021/06/12 11:02:18;;;;;;;8.83;3.10;;;;;;;24.62;37.72;101099.13;5094075;28;20474;-51
2021/06/12 11:04:53;;;;;;;7.43;2.63;;;;;;;24.96;37.68;101083.81;5095334;28;20450;-47
2021/06/12 11:07:26;;;;;;;6.50;2.60;;;;;;;24.44;38.17;101096.72;5093536;28;20478;-49
2021/06/12 11:09:55;;;;;;;8.60;3.37;;;;;;;24.65;39.24;101095.56;5096863;28;20488;-51
2021/06/12 11:12:36;;;;;;;8.77;2.70;;;;;;;24.79;38.82;101087.50;5098100;28;20467;-48
2021/06/12 11:15:10;;;;;;;7.40;2.60;;;;;;;24.51;38.23;101088.69;5098929;28;20459;-48
2021/06/12 11:17:38;;;;;;;11.80;3.80;;;;;;;24.70;38.26;101096.41;5097094;28;20784;-48